sensor_id;sensor_type;location;lat;lon;timestamp;temperature;humidity
78438;SHT31;67736;51.978;5.656;2023-05-10T00:01:48;16.7;72.7
78438;SHT31;67736;51.978;5.656;2023-05-10T00:04:19;16.7;72.6
78438;SHT31;67736;51.978;5.656;2023-05-10T00:06:49;16.7;72.5
78438;SHT31;67736;51.978;5.656;2023-05-10T00:09:18;16.7;72.6
78438;SHT31;67736;51.978;5.656;2023-05-10T00:11:47;16.7;72.7
78438;SHT31;67736;51.978;5.656;2023-05-10T00:14:17;16.7;72.7
78438;SHT31;67736;51.978;5.656;2023-05-10T00:16:47;16.7;72.7
78438;SHT31;67736;51.978;5.656;2023-05-10T00:19:16;16.7;72.9
78438;SHT31;67736;51.978;5.656;2023-05-10T00:21:46;16.7;72.8
78438;SHT31;67736;51.978;5.656;2023-05-10T00:24:15;16.7;72.8
78438;SHT31;67736;51.978;5.656;2023-05-10T00:26:45;16.7;72.9
78438;SHT31;67736;51.978;5.656;2023-05-10T00:29:14;16.7;72.8
78438;SHT31;67736;51.978;5.656;2023-05-10T00:31:44;16.7;73.0
78438;SHT31;67736;51.978;5.656;2023-05-10T00:34:13;16.7;73.0
78438;SHT31;67736;51.978;5.656;2023-05-10T00:36:42;16.7;72.9
78438;SHT31;67736;51.978;5.656;2023-05-10T00:39:12;16.7;73.0
78438;SHT31;67736;51.978;5.656;2023-05-10T00:41:42;16.7;73.1
78438;SHT31;67736;51.978;5.656;2023-05-10T00:44:12;16.7;73.0
78438;SHT31;67736;51.978;5.656;2023-05-10T00:46:42;16.7;73.1
78438;SHT31;67736;51.978;5.656;2023-05-10T00:49:11;16.7;73.1
78438;SHT31;67736;51.978;5.656;2023-05-10T00:51:41;16.6;73.2
78438;SHT31;67736;51.978;5.656;2023-05-10T00:54:14;16.6;73.2
78438;SHT31;67736;51.978;5.656;2023-05-10T00:56:45;16.6;73.2
78438;SHT31;67736;51.978;5.656;2023-05-10T00:59:17;16.6;73.2
78438;SHT31;67736;51.978;5.656;2023-05-10T01:01:47;16.6;73.3
78438;SHT31;67736;51.978;5.656;2023-05-10T01:04:17;16.6;73.3
78438;SHT31;67736;51.978;5.656;2023-05-10T01:06:47;16.6;73.4
78438;SHT31;67736;51.978;5.656;2023-05-10T01:09:19;16.6;73.5
78438;SHT31;67736;51.978;5.656;2023-05-10T01:11:49;16.6;73.7
78438;SHT31;67736;51.978;5.656;2023-05-10T01:14:20;16.6;73.7
78438;SHT31;67736;51.978;5.656;2023-05-10T01:16:50;16.6;73.8
78438;SHT31;67736;51.978;5.656;2023-05-10T01:19:23;16.6;74.1
78438;SHT31;67736;51.978;5.656;2023-05-10T01:22:04;16.6;74.0
78438;SHT31;67736;51.978;5.656;2023-05-10T01:25:02;16.6;74.3
78438;SHT31;67736;51.978;5.656;2023-05-10T01:29:13;16.6;74.5
78438;SHT31;67736;51.978;5.656;2023-05-10T01:32:05;16.6;74.5
78438;SHT31;67736;51.978;5.656;2023-05-10T01:34:45;16.6;74.5
78438;SHT31;67736;51.978;5.656;2023-05-10T01:37:24;16.6;74.3
78438;SHT31;67736;51.978;5.656;2023-05-10T01:40:01;16.6;74.4
78438;SHT31;67736;51.978;5.656;2023-05-10T01:42:38;16.5;74.0
78438;SHT31;67736;51.978;5.656;2023-05-10T01:45:16;16.5;74.2
78438;SHT31;67736;51.978;5.656;2023-05-10T01:47:52;16.5;74.2
78438;SHT31;67736;51.978;5.656;2023-05-10T01:50:27;16.5;74.2
78438;SHT31;67736;51.978;5.656;2023-05-10T01:53:00;16.5;74.3
78438;SHT31;67736;51.978;5.656;2023-05-10T01:55:33;16.5;74.3
78438;SHT31;67736;51.978;5.656;2023-05-10T01:58:10;16.5;74.6
78438;SHT31;67736;51.978;5.656;2023-05-10T02:00:44;16.5;74.5
78438;SHT31;67736;51.978;5.656;2023-05-10T02:03:16;16.5;74.3
78438;SHT31;67736;51.978;5.656;2023-05-10T02:05:48;16.4;74.4
78438;SHT31;67736;51.978;5.656;2023-05-10T02:08:21;16.4;74.6
78438;SHT31;67736;51.978;5.656;2023-05-10T02:10:53;16.4;74.8
78438;SHT31;67736;51.978;5.656;2023-05-10T02:13:24;16.4;74.8
78438;SHT31;67736;51.978;5.656;2023-05-10T02:15:56;16.4;74.6
78438;SHT31;67736;51.978;5.656;2023-05-10T02:18:27;16.4;74.8
78438;SHT31;67736;51.978;5.656;2023-05-10T02:20:58;16.4;74.7
78438;SHT31;67736;51.978;5.656;2023-05-10T02:23:30;16.4;74.6
78438;SHT31;67736;51.978;5.656;2023-05-10T02:26:01;16.3;74.3
78438;SHT31;67736;51.978;5.656;2023-05-10T02:28:35;16.3;74.5
78438;SHT31;67736;51.978;5.656;2023-05-10T02:31:05;16.3;74.4
78438;SHT31;67736;51.978;5.656;2023-05-10T02:33:39;16.3;74.2
78438;SHT31;67736;51.978;5.656;2023-05-10T02:36:12;16.3;74.1
78438;SHT31;67736;51.978;5.656;2023-05-10T02:38:44;16.3;74.3
78438;SHT31;67736;51.978;5.656;2023-05-10T02:41:15;16.2;74.2
78438;SHT31;67736;51.978;5.656;2023-05-10T02:43:46;16.2;74.4
78438;SHT31;67736;51.978;5.656;2023-05-10T02:46:16;16.2;73.9
78438;SHT31;67736;51.978;5.656;2023-05-10T02:48:48;16.2;73.8
78438;SHT31;67736;51.978;5.656;2023-05-10T02:51:18;16.2;74.0
78438;SHT31;67736;51.978;5.656;2023-05-10T02:53:49;16.2;73.8
78438;SHT31;67736;51.978;5.656;2023-05-10T02:56:25;16.2;73.5
78438;SHT31;67736;51.978;5.656;2023-05-10T02:58:59;16.2;73.2
78438;SHT31;67736;51.978;5.656;2023-05-10T03:01:29;16.2;72.9
78438;SHT31;67736;51.978;5.656;2023-05-10T03:03:58;16.2;72.8
78438;SHT31;67736;51.978;5.656;2023-05-10T03:06:28;16.2;72.5
78438;SHT31;67736;51.978;5.656;2023-05-10T03:08:58;16.2;72.4
78438;SHT31;67736;51.978;5.656;2023-05-10T03:11:43;16.2;72.9
78438;SHT31;67736;51.978;5.656;2023-05-10T03:14:29;16.2;73.0
78438;SHT31;67736;51.978;5.656;2023-05-10T03:17:06;16.2;72.2
78438;SHT31;67736;51.978;5.656;2023-05-10T03:19:43;16.1;72.4
78438;SHT31;67736;51.978;5.656;2023-05-10T03:22:21;16.1;73.0
78438;SHT31;67736;51.978;5.656;2023-05-10T03:24:55;16.1;72.9
78438;SHT31;67736;51.978;5.656;2023-05-10T03:27:28;16.1;73.3
78438;SHT31;67736;51.978;5.656;2023-05-10T03:29:59;16.1;73.4
78438;SHT31;67736;51.978;5.656;2023-05-10T03:32:32;16.1;73.6
78438;SHT31;67736;51.978;5.656;2023-05-10T03:35:06;16.1;73.2
78438;SHT31;67736;51.978;5.656;2023-05-10T03:37:35;16.1;73.4
78438;SHT31;67736;51.978;5.656;2023-05-10T03:40:06;16.1;73.1
78438;SHT31;67736;51.978;5.656;2023-05-10T03:42:36;16.1;73.4
78438;SHT31;67736;51.978;5.656;2023-05-10T03:45:06;16.1;73.3
78438;SHT31;67736;51.978;5.656;2023-05-10T03:47:37;16.0;73.3
78438;SHT31;67736;51.978;5.656;2023-05-10T03:50:07;16.0;73.4
78438;SHT31;67736;51.978;5.656;2023-05-10T03:52:37;16.0;73.4
78438;SHT31;67736;51.978;5.656;2023-05-10T03:55:10;16.0;73.7
78438;SHT31;67736;51.978;5.656;2023-05-10T03:57:40;16.0;73.8
78438;SHT31;67736;51.978;5.656;2023-05-10T04:00:10;15.9;74.1
78438;SHT31;67736;51.978;5.656;2023-05-10T04:02:40;15.9;74.2
78438;SHT31;67736;51.978;5.656;2023-05-10T04:05:10;15.9;74.2
78438;SHT31;67736;51.978;5.656;2023-05-10T04:07:40;15.9;74.5
78438;SHT31;67736;51.978;5.656;2023-05-10T04:10:11;15.8;74.2
78438;SHT31;67736;51.978;5.656;2023-05-10T04:12:41;15.8;74.2
78438;SHT31;67736;51.978;5.656;2023-05-10T04:15:11;15.8;74.3
78438;SHT31;67736;51.978;5.656;2023-05-10T04:17:40;15.8;74.6
78438;SHT31;67736;51.978;5.656;2023-05-10T04:20:12;15.8;74.4
78438;SHT31;67736;51.978;5.656;2023-05-10T04:22:41;15.8;74.2
78438;SHT31;67736;51.978;5.656;2023-05-10T04:25:11;15.7;74.7
78438;SHT31;67736;51.978;5.656;2023-05-10T04:27:40;15.7;74.3
78438;SHT31;67736;51.978;5.656;2023-05-10T04:30:13;15.7;74.5
78438;SHT31;67736;51.978;5.656;2023-05-10T04:32:42;15.7;74.5
78438;SHT31;67736;51.978;5.656;2023-05-10T04:35:13;15.7;74.8
78438;SHT31;67736;51.978;5.656;2023-05-10T04:37:44;15.7;74.5
78438;SHT31;67736;51.978;5.656;2023-05-10T04:40:14;15.7;74.5
78438;SHT31;67736;51.978;5.656;2023-05-10T04:42:44;15.7;74.8
78438;SHT31;67736;51.978;5.656;2023-05-10T04:45:13;15.8;74.6
78438;SHT31;67736;51.978;5.656;2023-05-10T04:47:45;15.8;74.7
78438;SHT31;67736;51.978;5.656;2023-05-10T04:50:14;15.8;74.6
78438;SHT31;67736;51.978;5.656;2023-05-10T04:52:44;15.8;74.6
78438;SHT31;67736;51.978;5.656;2023-05-10T04:55:14;15.8;74.4
78438;SHT31;67736;51.978;5.656;2023-05-10T04:57:46;15.8;74.5
78438;SHT31;67736;51.978;5.656;2023-05-10T05:00:16;15.8;74.4
78438;SHT31;67736;51.978;5.656;2023-05-10T05:02:46;15.8;74.5
78438;SHT31;67736;51.978;5.656;2023-05-10T05:05:15;15.9;74.8
78438;SHT31;67736;51.978;5.656;2023-05-10T05:07:44;15.9;74.8
78438;SHT31;67736;51.978;5.656;2023-05-10T05:10:14;15.9;74.6
78438;SHT31;67736;51.978;5.656;2023-05-10T05:12:44;15.9;74.6
78438;SHT31;67736;51.978;5.656;2023-05-10T05:15:14;15.9;74.5
78438;SHT31;67736;51.978;5.656;2023-05-10T05:17:44;15.9;74.9
78438;SHT31;67736;51.978;5.656;2023-05-10T05:20:14;16.0;74.7
78438;SHT31;67736;51.978;5.656;2023-05-10T05:22:44;16.0;74.3
78438;SHT31;67736;51.978;5.656;2023-05-10T05:25:14;16.0;74.3
78438;SHT31;67736;51.978;5.656;2023-05-10T05:27:44;16.0;73.9
78438;SHT31;67736;51.978;5.656;2023-05-10T05:30:14;16.0;73.7
78438;SHT31;67736;51.978;5.656;2023-05-10T05:32:44;16.0;73.8
78438;SHT31;67736;51.978;5.656;2023-05-10T05:35:16;16.0;74.0
78438;SHT31;67736;51.978;5.656;2023-05-10T05:37:46;16.0;74.0
78438;SHT31;67736;51.978;5.656;2023-05-10T05:40:17;16.0;73.8
78438;SHT31;67736;51.978;5.656;2023-05-10T05:42:47;16.0;74.1
78438;SHT31;67736;51.978;5.656;2023-05-10T05:45:17;16.0;74.2
78438;SHT31;67736;51.978;5.656;2023-05-10T05:47:48;16.0;74.5
78438;SHT31;67736;51.978;5.656;2023-05-10T05:50:18;16.0;74.6
78438;SHT31;67736;51.978;5.656;2023-05-10T05:52:47;16.0;74.3
78438;SHT31;67736;51.978;5.656;2023-05-10T05:55:17;16.0;74.5
78438;SHT31;67736;51.978;5.656;2023-05-10T05:57:47;16.0;74.6
78438;SHT31;67736;51.978;5.656;2023-05-10T06:00:17;16.0;74.4
78438;SHT31;67736;51.978;5.656;2023-05-10T06:02:46;16.0;74.6
78438;SHT31;67736;51.978;5.656;2023-05-10T06:05:18;16.0;74.4
78438;SHT31;67736;51.978;5.656;2023-05-10T06:07:48;16.0;74.2
78438;SHT31;67736;51.978;5.656;2023-05-10T06:10:18;16.0;74.7
78438;SHT31;67736;51.978;5.656;2023-05-10T06:12:47;16.0;74.3
78438;SHT31;67736;51.978;5.656;2023-05-10T06:15:17;16.0;74.6
78438;SHT31;67736;51.978;5.656;2023-05-10T06:17:46;16.0;74.8
78438;SHT31;67736;51.978;5.656;2023-05-10T06:20:16;16.0;74.3
78438;SHT31;67736;51.978;5.656;2023-05-10T06:22:46;16.0;74.4
78438;SHT31;67736;51.978;5.656;2023-05-10T06:25:15;16.1;74.9
78438;SHT31;67736;51.978;5.656;2023-05-10T06:27:45;16.1;74.6
78438;SHT31;67736;51.978;5.656;2023-05-10T06:30:16;16.1;74.8
78438;SHT31;67736;51.978;5.656;2023-05-10T06:32:46;16.1;74.6
78438;SHT31;67736;51.978;5.656;2023-05-10T06:35:15;16.1;74.3
78438;SHT31;67736;51.978;5.656;2023-05-10T06:37:45;16.1;74.3
78438;SHT31;67736;51.978;5.656;2023-05-10T06:40:17;16.1;74.5
78438;SHT31;67736;51.978;5.656;2023-05-10T06:42:47;16.1;74.3
78438;SHT31;67736;51.978;5.656;2023-05-10T06:45:17;16.1;74.4
78438;SHT31;67736;51.978;5.656;2023-05-10T06:47:47;16.1;74.9
78438;SHT31;67736;51.978;5.656;2023-05-10T06:50:16;16.1;75.1
78438;SHT31;67736;51.978;5.656;2023-05-10T06:52:47;16.0;75.0
78438;SHT31;67736;51.978;5.656;2023-05-10T06:55:17;16.0;75.3
78438;SHT31;67736;51.978;5.656;2023-05-10T06:57:47;16.0;74.8
78438;SHT31;67736;51.978;5.656;2023-05-10T07:00:18;16.0;75.4
78438;SHT31;67736;51.978;5.656;2023-05-10T07:02:48;16.0;75.4
78438;SHT31;67736;51.978;5.656;2023-05-10T07:05:18;16.0;75.2
78438;SHT31;67736;51.978;5.656;2023-05-10T07:07:48;16.0;75.4
78438;SHT31;67736;51.978;5.656;2023-05-10T07:10:17;16.0;75.4
78438;SHT31;67736;51.978;5.656;2023-05-10T07:12:47;16.0;75.7
78438;SHT31;67736;51.978;5.656;2023-05-10T07:15:16;16.0;75.7
78438;SHT31;67736;51.978;5.656;2023-05-10T07:17:46;16.0;75.3
78438;SHT31;67736;51.978;5.656;2023-05-10T07:20:16;16.1;74.7
78438;SHT31;67736;51.978;5.656;2023-05-10T07:22:45;16.1;74.2
78438;SHT31;67736;51.978;5.656;2023-05-10T07:25:15;16.1;74.3
78438;SHT31;67736;51.978;5.656;2023-05-10T07:27:46;16.1;74.2
78438;SHT31;67736;51.978;5.656;2023-05-10T07:30:16;16.1;74.8
78438;SHT31;67736;51.978;5.656;2023-05-10T07:32:47;16.1;74.2
78438;SHT31;67736;51.978;5.656;2023-05-10T07:35:18;16.1;74.1
78438;SHT31;67736;51.978;5.656;2023-05-10T07:37:48;16.1;73.9
78438;SHT31;67736;51.978;5.656;2023-05-10T07:40:17;16.1;74.1
78438;SHT31;67736;51.978;5.656;2023-05-10T07:42:47;16.2;74.1
78438;SHT31;67736;51.978;5.656;2023-05-10T07:45:17;16.2;74.8
78438;SHT31;67736;51.978;5.656;2023-05-10T07:47:47;16.2;75.1
78438;SHT31;67736;51.978;5.656;2023-05-10T07:50:17;16.3;73.7
78438;SHT31;67736;51.978;5.656;2023-05-10T07:52:46;16.3;72.8
78438;SHT31;67736;51.978;5.656;2023-05-10T07:55:18;16.4;72.4
78438;SHT31;67736;51.978;5.656;2023-05-10T07:57:48;16.4;71.6
78438;SHT31;67736;51.978;5.656;2023-05-10T08:00:19;16.4;71.2
78438;SHT31;67736;51.978;5.656;2023-05-10T08:02:49;16.5;71.0
78438;SHT31;67736;51.978;5.656;2023-05-10T08:05:20;16.5;70.7
78438;SHT31;67736;51.978;5.656;2023-05-10T08:07:50;16.5;70.2
78438;SHT31;67736;51.978;5.656;2023-05-10T08:10:21;16.5;69.4
78438;SHT31;67736;51.978;5.656;2023-05-10T08:12:51;16.5;69.9
78438;SHT31;67736;51.978;5.656;2023-05-10T08:15:21;16.5;69.2
78438;SHT31;67736;51.978;5.656;2023-05-10T08:17:51;16.5;69.0
78438;SHT31;67736;51.978;5.656;2023-05-10T08:20:20;16.4;69.4
78438;SHT31;67736;51.978;5.656;2023-05-10T08:22:52;16.4;69.5
78438;SHT31;67736;51.978;5.656;2023-05-10T08:25:22;16.4;69.0
78438;SHT31;67736;51.978;5.656;2023-05-10T08:27:52;16.5;67.9
78438;SHT31;67736;51.978;5.656;2023-05-10T08:30:21;16.5;69.1
78438;SHT31;67736;51.978;5.656;2023-05-10T08:32:51;16.5;67.8
78438;SHT31;67736;51.978;5.656;2023-05-10T08:35:21;16.5;67.4
78438;SHT31;67736;51.978;5.656;2023-05-10T08:37:50;16.5;67.7
78438;SHT31;67736;51.978;5.656;2023-05-10T08:40:20;16.6;68.7
78438;SHT31;67736;51.978;5.656;2023-05-10T08:42:55;16.6;68.5
78438;SHT31;67736;51.978;5.656;2023-05-10T08:45:40;16.6;69.6
78438;SHT31;67736;51.978;5.656;2023-05-10T08:48:09;16.7;68.8
78438;SHT31;67736;51.978;5.656;2023-05-10T08:50:40;16.7;66.6
78438;SHT31;67736;51.978;5.656;2023-05-10T08:53:12;16.8;66.3
78438;SHT31;67736;51.978;5.656;2023-05-10T08:55:42;16.9;66.3
78438;SHT31;67736;51.978;5.656;2023-05-10T08:58:12;17.0;65.9
78438;SHT31;67736;51.978;5.656;2023-05-10T09:00:41;17.0;65.1
78438;SHT31;67736;51.978;5.656;2023-05-10T09:03:12;17.1;64.4
78438;SHT31;67736;51.978;5.656;2023-05-10T09:05:42;17.2;65.4
78438;SHT31;67736;51.978;5.656;2023-05-10T09:08:12;17.2;64.4
78438;SHT31;67736;51.978;5.656;2023-05-10T09:10:45;17.3;65.3
78438;SHT31;67736;51.978;5.656;2023-05-10T09:13:17;17.4;64.0
78438;SHT31;67736;51.978;5.656;2023-05-10T09:15:48;17.4;64.1
78438;SHT31;67736;51.978;5.656;2023-05-10T09:18:18;17.5;64.5
78438;SHT31;67736;51.978;5.656;2023-05-10T09:20:48;17.5;64.2
78438;SHT31;67736;51.978;5.656;2023-05-10T09:23:18;17.6;64.8
78438;SHT31;67736;51.978;5.656;2023-05-10T09:25:50;17.6;64.4
78438;SHT31;67736;51.978;5.656;2023-05-10T09:28:25;17.7;63.1
78438;SHT31;67736;51.978;5.656;2023-05-10T09:30:55;17.7;62.4
78438;SHT31;67736;51.978;5.656;2023-05-10T09:33:25;17.8;63.3
78438;SHT31;67736;51.978;5.656;2023-05-10T09:35:54;17.8;64.3
78438;SHT31;67736;51.978;5.656;2023-05-10T09:38:24;17.9;63.7
78438;SHT31;67736;51.978;5.656;2023-05-10T09:40:54;17.9;64.2
78438;SHT31;67736;51.978;5.656;2023-05-10T09:43:25;17.9;61.9
78438;SHT31;67736;51.978;5.656;2023-05-10T09:45:55;18.0;61.8
78438;SHT31;67736;51.978;5.656;2023-05-10T09:48:25;18.0;62.3
78438;SHT31;67736;51.978;5.656;2023-05-10T09:50:58;18.0;61.8
78438;SHT31;67736;51.978;5.656;2023-05-10T09:53:28;18.0;61.6
78438;SHT31;67736;51.978;5.656;2023-05-10T09:55:57;18.0;61.9
78438;SHT31;67736;51.978;5.656;2023-05-10T09:58:27;18.0;62.7
78438;SHT31;67736;51.978;5.656;2023-05-10T10:00:59;18.1;61.8
78438;SHT31;67736;51.978;5.656;2023-05-10T10:03:30;18.1;61.8
78438;SHT31;67736;51.978;5.656;2023-05-10T10:05:59;18.1;62.3
78438;SHT31;67736;51.978;5.656;2023-05-10T10:08:31;18.1;61.5
78438;SHT31;67736;51.978;5.656;2023-05-10T10:11:01;18.1;61.2
78438;SHT31;67736;51.978;5.656;2023-05-10T10:13:32;18.2;61.5
78438;SHT31;67736;51.978;5.656;2023-05-10T10:16:02;18.2;61.7
78438;SHT31;67736;51.978;5.656;2023-05-10T10:18:33;18.2;62.7
78438;SHT31;67736;51.978;5.656;2023-05-10T10:21:07;18.2;62.1
78438;SHT31;67736;51.978;5.656;2023-05-10T10:23:37;18.2;63.3
78438;SHT31;67736;51.978;5.656;2023-05-10T10:26:07;18.3;61.1
78438;SHT31;67736;51.978;5.656;2023-05-10T10:28:44;18.3;61.8
78438;SHT31;67736;51.978;5.656;2023-05-10T10:31:26;18.3;60.5
78438;SHT31;67736;51.978;5.656;2023-05-10T10:34:05;18.4;62.2
78438;SHT31;67736;51.978;5.656;2023-05-10T10:36:44;18.4;61.0
78438;SHT31;67736;51.978;5.656;2023-05-10T10:39:15;18.4;60.8
78438;SHT31;67736;51.978;5.656;2023-05-10T10:41:52;18.5;60.7
78438;SHT31;67736;51.978;5.656;2023-05-10T10:45:13;18.5;61.0
78438;SHT31;67736;51.978;5.656;2023-05-10T10:47:42;18.5;61.0
78438;SHT31;67736;51.978;5.656;2023-05-10T10:50:13;18.6;62.2
78438;SHT31;67736;51.978;5.656;2023-05-10T10:52:44;18.6;62.2
78438;SHT31;67736;51.978;5.656;2023-05-10T10:55:18;18.7;60.6
78438;SHT31;67736;51.978;5.656;2023-05-10T10:57:52;18.7;60.8
78438;SHT31;67736;51.978;5.656;2023-05-10T11:00:31;18.7;61.2
78438;SHT31;67736;51.978;5.656;2023-05-10T11:03:04;18.8;60.0
78438;SHT31;67736;51.978;5.656;2023-05-10T11:05:37;18.8;59.3
78438;SHT31;67736;51.978;5.656;2023-05-10T11:08:13;18.8;61.2
78438;SHT31;67736;51.978;5.656;2023-05-10T11:10:51;18.9;60.1
78438;SHT31;67736;51.978;5.656;2023-05-10T11:13:32;18.9;60.2
78438;SHT31;67736;51.978;5.656;2023-05-10T11:16:12;19.0;59.5
78438;SHT31;67736;51.978;5.656;2023-05-10T11:18:56;19.0;59.7
78438;SHT31;67736;51.978;5.656;2023-05-10T11:21:29;19.0;59.0
78438;SHT31;67736;51.978;5.656;2023-05-10T11:24:01;19.0;58.9
78438;SHT31;67736;51.978;5.656;2023-05-10T11:26:34;19.0;59.7
78438;SHT31;67736;51.978;5.656;2023-05-10T11:29:04;19.0;59.3
78438;SHT31;67736;51.978;5.656;2023-05-10T11:31:35;19.0;60.2
78438;SHT31;67736;51.978;5.656;2023-05-10T11:34:04;19.0;60.5
78438;SHT31;67736;51.978;5.656;2023-05-10T11:36:35;19.0;59.0
78438;SHT31;67736;51.978;5.656;2023-05-10T11:39:05;19.1;58.5
78438;SHT31;67736;51.978;5.656;2023-05-10T11:41:35;19.1;58.3
78438;SHT31;67736;51.978;5.656;2023-05-10T11:44:05;19.1;59.0
78438;SHT31;67736;51.978;5.656;2023-05-10T11:46:38;19.1;59.2
78438;SHT31;67736;51.978;5.656;2023-05-10T11:49:07;19.1;58.6
78438;SHT31;67736;51.978;5.656;2023-05-10T11:51:37;19.1;59.4
78438;SHT31;67736;51.978;5.656;2023-05-10T11:54:09;19.2;58.5
78438;SHT31;67736;51.978;5.656;2023-05-10T11:56:41;19.2;57.0
78438;SHT31;67736;51.978;5.656;2023-05-10T11:59:16;19.3;57.9
78438;SHT31;67736;51.978;5.656;2023-05-10T12:01:46;19.3;58.6
78438;SHT31;67736;51.978;5.656;2023-05-10T12:04:17;19.4;58.3
78438;SHT31;67736;51.978;5.656;2023-05-10T12:06:47;19.5;57.6
78438;SHT31;67736;51.978;5.656;2023-05-10T12:09:17;19.5;58.2
78438;SHT31;67736;51.978;5.656;2023-05-10T12:11:47;19.6;59.0
78438;SHT31;67736;51.978;5.656;2023-05-10T12:14:16;19.7;57.7
78438;SHT31;67736;51.978;5.656;2023-05-10T12:16:48;19.7;57.2
78438;SHT31;67736;51.978;5.656;2023-05-10T12:19:20;19.8;57.7
78438;SHT31;67736;51.978;5.656;2023-05-10T12:21:49;19.9;57.6
78438;SHT31;67736;51.978;5.656;2023-05-10T12:24:19;19.9;56.8
78438;SHT31;67736;51.978;5.656;2023-05-10T12:26:50;20.0;55.9
78438;SHT31;67736;51.978;5.656;2023-05-10T12:29:22;20.1;55.7
78438;SHT31;67736;51.978;5.656;2023-05-10T12:31:54;20.1;55.3
78438;SHT31;67736;51.978;5.656;2023-05-10T12:34:31;20.2;56.6
78438;SHT31;67736;51.978;5.656;2023-05-10T12:37:02;20.3;55.7
78438;SHT31;67736;51.978;5.656;2023-05-10T12:39:49;20.3;54.9
78438;SHT31;67736;51.978;5.656;2023-05-10T12:42:19;20.4;55.8
78438;SHT31;67736;51.978;5.656;2023-05-10T12:44:48;20.4;54.6
78438;SHT31;67736;51.978;5.656;2023-05-10T12:47:18;20.5;54.5
78438;SHT31;67736;51.978;5.656;2023-05-10T12:49:49;20.5;53.9
78438;SHT31;67736;51.978;5.656;2023-05-10T12:52:18;20.5;54.7
78438;SHT31;67736;51.978;5.656;2023-05-10T12:54:48;20.6;54.4
78438;SHT31;67736;51.978;5.656;2023-05-10T12:57:18;20.6;55.0
78438;SHT31;67736;51.978;5.656;2023-05-10T12:59:47;20.6;55.6
78438;SHT31;67736;51.978;5.656;2023-05-10T13:02:17;20.6;54.8
78438;SHT31;67736;51.978;5.656;2023-05-10T13:04:50;20.7;55.1
78438;SHT31;67736;51.978;5.656;2023-05-10T13:07:20;20.7;55.5
78438;SHT31;67736;51.978;5.656;2023-05-10T13:09:49;20.7;55.4
78438;SHT31;67736;51.978;5.656;2023-05-10T13:12:19;20.6;55.2
78438;SHT31;67736;51.978;5.656;2023-05-10T13:14:49;20.6;55.5
78438;SHT31;67736;51.978;5.656;2023-05-10T13:17:18;20.5;55.9
78438;SHT31;67736;51.978;5.656;2023-05-10T13:19:48;20.4;56.8
78438;SHT31;67736;51.978;5.656;2023-05-10T13:22:18;20.4;57.0
78438;SHT31;67736;51.978;5.656;2023-05-10T13:24:47;20.3;57.7
78438;SHT31;67736;51.978;5.656;2023-05-10T13:27:18;20.2;58.5
78438;SHT31;67736;51.978;5.656;2023-05-10T13:29:48;20.1;60.0
78438;SHT31;67736;51.978;5.656;2023-05-10T13:32:18;20.0;60.5
78438;SHT31;67736;51.978;5.656;2023-05-10T13:34:48;19.9;60.9
78438;SHT31;67736;51.978;5.656;2023-05-10T13:37:17;19.8;61.5
78438;SHT31;67736;51.978;5.656;2023-05-10T13:39:47;19.7;62.0
78438;SHT31;67736;51.978;5.656;2023-05-10T13:42:17;19.6;62.3
78438;SHT31;67736;51.978;5.656;2023-05-10T13:44:46;19.5;63.8
78438;SHT31;67736;51.978;5.656;2023-05-10T13:47:16;19.4;63.8
78438;SHT31;67736;51.978;5.656;2023-05-10T13:49:48;19.3;64.9
78438;SHT31;67736;51.978;5.656;2023-05-10T13:52:18;19.2;64.2
78438;SHT31;67736;51.978;5.656;2023-05-10T13:54:48;19.1;63.8
78438;SHT31;67736;51.978;5.656;2023-05-10T13:57:19;19.0;63.5
78438;SHT31;67736;51.978;5.656;2023-05-10T13:59:49;18.9;63.4
78438;SHT31;67736;51.978;5.656;2023-05-10T14:02:19;18.7;64.1
78438;SHT31;67736;51.978;5.656;2023-05-10T14:04:49;18.6;64.9
78438;SHT31;67736;51.978;5.656;2023-05-10T14:07:18;18.5;64.7
78438;SHT31;67736;51.978;5.656;2023-05-10T14:09:49;18.5;65.3
78438;SHT31;67736;51.978;5.656;2023-05-10T14:12:18;18.4;66.7
78438;SHT31;67736;51.978;5.656;2023-05-10T14:14:48;18.3;66.8
78438;SHT31;67736;51.978;5.656;2023-05-10T14:17:18;18.3;66.5
78438;SHT31;67736;51.978;5.656;2023-05-10T14:19:49;18.2;67.3
78438;SHT31;67736;51.978;5.656;2023-05-10T14:22:19;18.2;67.5
78438;SHT31;67736;51.978;5.656;2023-05-10T14:24:49;18.1;67.2
78438;SHT31;67736;51.978;5.656;2023-05-10T14:27:19;18.1;67.6
78438;SHT31;67736;51.978;5.656;2023-05-10T14:29:48;18.0;66.9
78438;SHT31;67736;51.978;5.656;2023-05-10T14:32:18;17.9;67.0
78438;SHT31;67736;51.978;5.656;2023-05-10T14:34:48;17.9;67.8
78438;SHT31;67736;51.978;5.656;2023-05-10T14:37:17;17.8;68.4
78438;SHT31;67736;51.978;5.656;2023-05-10T14:39:47;17.8;69.2
78438;SHT31;67736;51.978;5.656;2023-05-10T14:42:16;17.8;68.9
78438;SHT31;67736;51.978;5.656;2023-05-10T14:44:46;17.7;70.4
78438;SHT31;67736;51.978;5.656;2023-05-10T14:47:15;17.7;68.9
78438;SHT31;67736;51.978;5.656;2023-05-10T14:49:45;17.7;68.8
78438;SHT31;67736;51.978;5.656;2023-05-10T14:52:15;17.7;69.1
78438;SHT31;67736;51.978;5.656;2023-05-10T14:54:44;17.7;70.7
78438;SHT31;67736;51.978;5.656;2023-05-10T14:57:14;17.7;71.8
78438;SHT31;67736;51.978;5.656;2023-05-10T14:59:44;17.8;69.6
78438;SHT31;67736;51.978;5.656;2023-05-10T15:02:14;17.8;70.1
78438;SHT31;67736;51.978;5.656;2023-05-10T15:04:43;17.8;70.1
78438;SHT31;67736;51.978;5.656;2023-05-10T15:07:13;17.8;70.9
78438;SHT31;67736;51.978;5.656;2023-05-10T15:09:44;17.9;69.4
78438;SHT31;67736;51.978;5.656;2023-05-10T15:12:14;17.9;68.9
78438;SHT31;67736;51.978;5.656;2023-05-10T15:14:44;18.0;69.4
78438;SHT31;67736;51.978;5.656;2023-05-10T15:17:14;18.0;70.2
78438;SHT31;67736;51.978;5.656;2023-05-10T15:19:43;18.0;68.5
78438;SHT31;67736;51.978;5.656;2023-05-10T15:22:15;18.1;67.8
78438;SHT31;67736;51.978;5.656;2023-05-10T15:24:45;18.1;68.3
78438;SHT31;67736;51.978;5.656;2023-05-10T15:27:16;18.1;67.5
78438;SHT31;67736;51.978;5.656;2023-05-10T15:29:46;18.1;68.4
78438;SHT31;67736;51.978;5.656;2023-05-10T15:32:17;18.2;67.0
78438;SHT31;67736;51.978;5.656;2023-05-10T15:34:47;18.2;67.7
78438;SHT31;67736;51.978;5.656;2023-05-10T15:37:17;18.2;67.0
78438;SHT31;67736;51.978;5.656;2023-05-10T15:39:47;18.2;67.1
78438;SHT31;67736;51.978;5.656;2023-05-10T15:42:16;18.2;67.7
78438;SHT31;67736;51.978;5.656;2023-05-10T15:44:46;18.2;68.7
78438;SHT31;67736;51.978;5.656;2023-05-10T15:47:17;18.2;67.9
78438;SHT31;67736;51.978;5.656;2023-05-10T15:49:48;18.3;67.7
78438;SHT31;67736;51.978;5.656;2023-05-10T15:52:19;18.3;66.7
78438;SHT31;67736;51.978;5.656;2023-05-10T15:54:50;18.3;66.8
78438;SHT31;67736;51.978;5.656;2023-05-10T15:57:20;18.3;66.6
78438;SHT31;67736;51.978;5.656;2023-05-10T15:59:50;18.3;67.0
78438;SHT31;67736;51.978;5.656;2023-05-10T16:02:20;18.3;65.7
78438;SHT31;67736;51.978;5.656;2023-05-10T16:04:49;18.4;67.4
78438;SHT31;67736;51.978;5.656;2023-05-10T16:07:19;18.4;66.9
78438;SHT31;67736;51.978;5.656;2023-05-10T16:09:48;18.4;65.8
78438;SHT31;67736;51.978;5.656;2023-05-10T16:12:19;18.4;66.7
78438;SHT31;67736;51.978;5.656;2023-05-10T16:14:48;18.4;65.9
78438;SHT31;67736;51.978;5.656;2023-05-10T16:17:18;18.4;66.3
78438;SHT31;67736;51.978;5.656;2023-05-10T16:19:49;18.4;66.3
78438;SHT31;67736;51.978;5.656;2023-05-10T16:22:21;18.3;66.8
78438;SHT31;67736;51.978;5.656;2023-05-10T16:24:53;18.3;67.8
78438;SHT31;67736;51.978;5.656;2023-05-10T16:27:23;18.4;66.9
78438;SHT31;67736;51.978;5.656;2023-05-10T16:29:55;18.4;67.0